< < Back
Terminal Aerodrome Forecast


Current Version              Previous Versions:   1  2  3  4  5  6  7  8  9  

Terminal Aerodrome Forecast

033
FTUS42 KJAX 070157 AAA
TAFSSI
TAF AMD
KSSI 070157Z 0702/0724 03007KT P6SM FEW030 SCT250
     FM070800 34008KT P6SM SCT040 SCT250
     FM071400 33014G22KT P6SM SCT035 BKN250=

Latest METAR

479
SAUS70 KWBC 070200 RRA
MTRSSI
METAR KSSI 070153Z AUTO 04006KT 10SM CLR 21/17 A3009 RMK AO2 SLP188
T02060167


USA.gov is the U.S. government's official web portal to all federal, state and local government web resources and services.